Time;durP1;ratioP1;P1;durP2;ratioP2;P2;SDS_P1;SDS_P2;PMS_P1;PMS_P2;Temp;Humidity;BMP_temperature;BMP_pressure;BME280_temperature;BME280_humidity;BME280_pressure;Samples;Min_cycle;Max_cycle;Signal;HPM_P1;HPM_P2
2022/06/25 00:01:04;;;;;;;46.55;44.08;;;;;;;;;;5051974;28;20133;-66
2022/06/25 00:03:30;;;;;;;40.28;38.20;;;;;;;;;;5053467;28;20120;-66
2022/06/25 00:05:55;;;;;;;41.00;38.90;;;;;;;;;;5059077;28;20032;-66
2022/06/25 00:08:20;;;;;;;39.00;37.03;;;;;;;;;;5056529;28;20049;-66
2022/06/25 00:10:46;;;;;;;37.72;35.72;;;;;;;;;;5053626;28;20411;-66
2022/06/25 00:16:52;;;;;;;48.38;45.90;;;;;;;;;;5053649;28;20260;-66
2022/06/25 00:19:17;;;;;;;75.68;71.80;;;;;;;;;;5050025;28;20206;-66
2022/06/25 00:21:42;;;;;;;88.57;84.18;;;;;;;;;;5051616;28;20039;-66
2022/06/25 00:24:08;;;;;;;89.85;85.28;;;;;;;;;;5049115;28;20116;-66
2022/06/25 00:26:33;;;;;;;74.65;70.88;;;;;;;;;;5050146;28;20104;-66
2022/06/25 00:28:59;;;;;;;78.90;74.93;;;;;;;;;;5049995;28;21013;-66
2022/06/25 00:31:24;;;;;;;98.40;93.50;;;;;;;;;;5049285;28;20056;-68
2022/06/25 00:33:50;;;;;;;81.15;77.13;;;;;;;;;;5049127;28;20113;-68
2022/06/25 00:36:15;;;;;;;56.95;54.05;;;;;;;;;;5048710;28;20028;-68
2022/06/25 00:38:40;;;;;;;42.25;40.08;;;;;;;;;;5048423;28;20040;-68
2022/06/25 00:41:06;;;;;;;77.57;73.55;;;;;;;;;;5051360;28;20029;-68
2022/06/25 00:43:31;;;;;;;57.92;54.90;;;;;;;;;;5050912;28;20040;-69
2022/06/25 00:45:57;;;;;;;34.85;33.03;;;;;;;;;;5051289;28;20520;-69
2022/06/25 00:48:22;;;;;;;35.85;33.97;;;;;;;;;;5047393;28;20511;-69
2022/06/25 00:50:47;;;;;;;37.80;35.78;;;;;;;;;;5047811;28;20075;-69
2022/06/25 00:53:15;;;;;;;45.42;43.08;;;;;;;;;;5049687;28;21646;-69
2022/06/25 00:55:43;;;;;;;52.42;49.70;;;;;;;;;;5050094;28;20071;-68
2022/06/25 00:58:11;;;;;;;31.73;29.92;;;;;;;;;;5053220;28;20148;-67
2022/06/25 01:00:36;;;;;;;39.60;37.55;;;;;;;;;;5049929;28;20025;-68
2022/06/25 01:03:02;;;;;;;37.85;35.90;;;;;;;;;;5049976;28;20514;-68
2022/06/25 01:05:27;;;;;;;34.53;32.67;;;;;;;;;;5046947;28;20355;-67
2022/06/25 01:07:52;;;;;;;44.67;42.33;;;;;;;;;;5049329;28;20086;-68
2022/06/25 01:10:18;;;;;;;47.22;44.80;;;;;;;;;;5051754;28;20132;-67
2022/06/25 01:12:43;;;;;;;37.25;35.33;;;;;;;;;;5048406;28;20030;-67
2022/06/25 01:15:15;;;;;;;45.97;43.65;;;;;;;;;;5049653;28;20036;-68
2022/06/25 01:17:51;;;;;;;45.95;43.60;;;;;;;;;;5051647;28;20521;-67
2022/06/25 01:20:19;;;;;;;42.50;40.30;;;;;;;;;;5049714;28;20060;-67
2022/06/25 01:22:45;;;;;;;46.28;43.88;;;;;;;;;;5049680;28;20403;-66
2022/06/25 01:25:11;;;;;;;32.45;30.70;;;;;;;;;;5048249;28;20047;-66
2022/06/25 01:27:36;;;;;;;36.65;34.75;;;;;;;;;;5049003;28;20466;-67
2022/06/25 01:30:03;;;;;;;35.40;33.58;;;;;;;;;;5049182;28;20047;-66
2022/06/25 01:32:29;;;;;;;35.72;33.83;;;;;;;;;;5046820;28;20035;-66
2022/06/25 01:34:54;;;;;;;41.55;39.45;;;;;;;;;;5046020;28;20514;-65
2022/06/25 01:37:21;;;;;;;38.55;36.55;;;;;;;;;;5045950;28;20124;-66
2022/06/25 01:39:50;;;;;;;42.72;40.55;;;;;;;;;;5050173;28;20078;-66
2022/06/25 01:44:59;;;;;;;42.40;40.10;;;;;;;;;;5046946;28;20064;-67
2022/06/25 01:47:25;;;;;;;40.83;38.67;;;;;;;;;;5049058;28;20553;-66
2022/06/25 01:49:50;;;;;;;43.38;41.17;;;;;;;;;;5047219;28;20550;-66
2022/06/25 01:52:15;;;;;;;39.97;37.92;;;;;;;;;;5050902;28;20572;-67
2022/06/25 01:54:41;;;;;;;34.15;32.22;;;;;;;;;;5051783;28;20036;-66
2022/06/25 01:57:06;;;;;;;24.17;22.85;;;;;;;;;;5054086;28;20037;-66
2022/06/25 01:59:31;;;;;;;20.95;19.75;;;;;;;;;;5050091;28;20024;-66
2022/06/25 02:01:57;;;;;;;18.02;16.92;;;;;;;;;;5052995;28;20381;-66
2022/06/25 02:04:22;;;;;;;21.95;20.75;;;;;;;;;;5050918;28;20383;-66
2022/06/25 02:06:48;;;;;;;17.55;16.58;;;;;;;;;;5051432;28;20064;-66
2022/06/25 02:09:13;;;;;;;19.58;18.48;;;;;;;;;;5051041;28;20109;-66
2022/06/25 02:11:38;;;;;;;16.23;15.32;;;;;;;;;;5052813;28;20048;-65
2022/06/25 02:14:04;;;;;;;17.83;16.83;;;;;;;;;;5051112;28;20109;-65
2022/06/25 02:16:29;;;;;;;17.02;16.05;;;;;;;;;;5055670;28;20347;-66
2022/06/25 02:18:54;;;;;;;16.25;15.23;;;;;;;;;;5062004;28;20108;-66
2022/06/25 02:21:20;;;;;;;18.92;17.88;;;;;;;;;;5051892;28;20032;-66
2022/06/25 02:23:45;;;;;;;19.15;18.08;;;;;;;;;;5052820;28;20036;-66
2022/06/25 02:26:10;;;;;;;18.15;17.15;;;;;;;;;;5055999;28;20814;-66
2022/06/25 02:28:36;;;;;;;19.77;18.70;;;;;;;;;;5056910;28;20518;-66
2022/06/25 02:31:01;;;;;;;20.77;19.63;;;;;;;;;;5050878;28;20462;-66
2022/06/25 02:33:27;;;;;;;19.85;18.75;;;;;;;;;;5051603;28;20041;-67
2022/06/25 02:35:52;;;;;;;19.30;18.23;;;;;;;;;;5053934;28;20055;-67
2022/06/25 02:38:18;;;;;;;19.55;18.45;;;;;;;;;;5056925;28;20033;-66
2022/06/25 02:40:43;;;;;;;21.08;19.92;;;;;;;;;;5053893;28;20132;-66
2022/06/25 02:43:09;;;;;;;22.55;21.33;;;;;;;;;;5050922;28;20056;-66
2022/06/25 02:45:35;;;;;;;21.60;20.35;;;;;;;;;;5050724;28;20037;-66
2022/06/25 02:48:00;;;;;;;22.33;21.13;;;;;;;;;;5053503;28;20033;-66
2022/06/25 02:50:26;;;;;;;21.63;20.40;;;;;;;;;;5047684;28;20123;-66
2022/06/25 02:52:52;;;;;;;17.20;16.23;;;;;;;;;;5050780;28;20492;-67
2022/06/25 02:55:18;;;;;;;19.63;18.52;;;;;;;;;;5049315;28;20122;-66
2022/06/25 03:00:27;;;;;;;16.95;16.02;;;;;;;;;;5046566;28;20090;-66
2022/06/25 03:02:53;;;;;;;15.48;14.57;;;;;;;;;;5047779;28;20029;-66
2022/06/25 03:05:18;;;;;;;19.75;18.55;;;;;;;;;;5048807;28;20535;-66
2022/06/25 03:07:44;;;;;;;17.95;16.95;;;;;;;;;;5049657;28;20037;-66
2022/06/25 03:10:10;;;;;;;18.90;17.85;;;;;;;;;;5049651;28;20068;-66
2022/06/25 03:12:35;;;;;;;17.92;16.90;;;;;;;;;;5052892;28;20032;-66
2022/06/25 03:15:01;;;;;;;20.45;19.33;;;;;;;;;;5049764;28;20028;-66
2022/06/25 03:17:27;;;;;;;20.52;19.35;;;;;;;;;;5051886;28;20119;-66
2022/06/25 03:19:52;;;;;;;23.98;22.58;;;;;;;;;;5054730;28;20036;-66
2022/06/25 03:22:18;;;;;;;31.17;29.58;;;;;;;;;;5049229;28;20060;-65
2022/06/25 03:24:43;;;;;;;26.25;24.83;;;;;;;;;;5051133;28;20107;-65
2022/06/25 03:27:08;;;;;;;33.35;31.63;;;;;;;;;;5048180;28;20029;-65
2022/06/25 03:29:34;;;;;;;41.47;39.28;;;;;;;;;;5049606;28;20503;-65
2022/06/25 03:31:59;;;;;;;33.22;31.50;;;;;;;;;;5051001;28;20537;-65
2022/06/25 03:34:25;;;;;;;32.88;31.15;;;;;;;;;;5047693;28;20094;-65
2022/06/25 03:36:50;;;;;;;31.02;29.38;;;;;;;;;;5052442;28;20473;-65
2022/06/25 03:39:16;;;;;;;27.63;26.13;;;;;;;;;;5051492;28;20029;-65
2022/06/25 03:41:41;;;;;;;24.52;23.20;;;;;;;;;;5049631;28;20048;-65
2022/06/25 03:44:08;;;;;;;23.08;21.77;;;;;;;;;;5053645;28;20474;-64
2022/06/25 03:46:35;;;;;;;23.75;22.45;;;;;;;;;;5051946;28;20039;-64
2022/06/25 03:49:02;;;;;;;34.25;32.35;;;;;;;;;;5054087;28;20028;-64
2022/06/25 03:51:28;;;;;;;25.13;23.75;;;;;;;;;;5050563;28;20057;-65
2022/06/25 03:53:54;;;;;;;42.90;40.70;;;;;;;;;;5055298;28;20597;-67
2022/06/25 03:56:20;;;;;;;32.60;30.90;;;;;;;;;;5050569;28;20135;-64
2022/06/25 03:58:46;;;;;;;43.83;41.55;;;;;;;;;;5054145;28;20182;-65
2022/06/25 04:01:12;;;;;;;38.92;36.92;;;;;;;;;;5054807;28;20069;-64
2022/06/25 04:03:39;;;;;;;43.40;40.92;;;;;;;;;;5057885;28;20127;-66
2022/06/25 04:06:04;;;;;;;47.03;44.58;;;;;;;;;;5058929;28;20025;-66
2022/06/25 04:08:30;;;;;;;46.55;44.15;;;;;;;;;;5055387;28;20662;-66
2022/06/25 04:10:55;;;;;;;42.17;39.97;;;;;;;;;;5051813;28;20036;-65
2022/06/25 04:13:20;;;;;;;43.58;41.38;;;;;;;;;;5048169;28;20036;-64
2022/06/25 04:15:46;;;;;;;45.10;42.80;;;;;;;;;;5052095;28;20430;-64
2022/06/25 04:18:11;;;;;;;43.22;40.92;;;;;;;;;;5047395;28;20055;-67
2022/06/25 04:20:37;;;;;;;44.63;42.05;;;;;;;;;;5047957;28;20075;-64
2022/06/25 04:23:02;;;;;;;35.50;33.65;;;;;;;;;;5050502;28;20068;-65
2022/06/25 04:25:28;;;;;;;43.63;40.53;;;;;;;;;;5056079;28;20035;-66
2022/06/25 04:30:37;;;;;;;37.90;35.90;;;;;;;;;;5054484;28;20056;-65
2022/06/25 04:33:04;;;;;;;37.72;35.72;;;;;;;;;;5052064;28;20048;-65
2022/06/25 04:35:29;;;;;;;57.85;54.90;;;;;;;;;;5052161;28;20108;-68
2022/06/25 04:37:54;;;;;;;55.33;52.38;;;;;;;;;;5058141;28;20147;-65
2022/06/25 04:40:20;;;;;;;52.30;49.65;;;;;;;;;;5061283;28;20028;-64
2022/06/25 04:42:46;;;;;;;56.50;53.47;;;;;;;;;;5054564;28;20119;-65
2022/06/25 04:45:11;;;;;;;44.40;42.03;;;;;;;;;;5051004;28;20037;-65
2022/06/25 04:47:37;;;;;;;48.33;45.80;;;;;;;;;;5052693;28;20561;-64
2022/06/25 04:50:02;;;;;;;41.67;39.53;;;;;;;;;;5055116;28;20133;-65
2022/06/25 04:52:28;;;;;;;49.47;46.78;;;;;;;;;;5049167;28;20040;-65
2022/06/25 04:54:53;;;;;;;49.53;47.00;;;;;;;;;;5047971;28;20028;-65
2022/06/25 04:57:19;;;;;;;39.30;37.28;;;;;;;;;;5049937;28;20039;-63
2022/06/25 04:59:44;;;;;;;53.03;50.33;;;;;;;;;;5054225;28;20417;-64
2022/06/25 05:02:10;;;;;;;40.85;38.75;;;;;;;;;;5053231;28;20032;-64
2022/06/25 05:04:35;;;;;;;36.67;34.75;;;;;;;;;;5056369;28;20099;-64
2022/06/25 05:07:00;;;;;;;35.15;33.33;;;;;;;;;;5054658;28;20477;-63
2022/06/25 05:09:26;;;;;;;38.40;36.42;;;;;;;;;;5054646;28;20032;-64
2022/06/25 05:11:52;;;;;;;44.63;42.28;;;;;;;;;;5054995;28;20052;-64
2022/06/25 05:14:17;;;;;;;38.25;36.30;;;;;;;;;;5058182;28;20035;-64
2022/06/25 05:16:45;;;;;;;41.95;39.78;;;;;;;;;;5057324;28;20575;-64
2022/06/25 05:19:11;;;;;;;34.53;32.70;;;;;;;;;;5058856;28;20057;-64
2022/06/25 05:21:36;;;;;;;39.33;37.33;;;;;;;;;;5052059;28;20488;-64
2022/06/25 05:24:02;;;;;;;38.90;36.90;;;;;;;;;;5056933;28;20430;-64
2022/06/25 05:26:28;;;;;;;40.72;38.63;;;;;;;;;;5058871;28;20044;-66
2022/06/25 05:28:53;;;;;;;34.58;32.78;;;;;;;;;;5057391;28;20509;-66
2022/06/25 05:31:19;;;;;;;32.80;31.10;;;;;;;;;;5057880;28;20037;-66
2022/06/25 05:33:44;;;;;;;29.48;27.88;;;;;;;;;;5052805;28;20047;-65
2022/06/25 05:36:09;;;;;;;29.00;27.50;;;;;;;;;;5054160;28;20090;-65
2022/06/25 05:38:35;;;;;;;30.23;28.52;;;;;;;;;;5051812;28;20048;-65
2022/06/25 05:41:00;;;;;;;27.10;25.65;;;;;;;;;;5054463;28;20033;-66
2022/06/25 05:43:26;;;;;;;32.97;31.17;;;;;;;;;;5056838;28;20116;-65
2022/06/25 05:45:51;;;;;;;25.50;24.10;;;;;;;;;;5055161;28;20174;-66
2022/06/25 05:48:16;;;;;;;30.00;28.40;;;;;;;;;;5055174;28;20111;-66
2022/06/25 05:50:42;;;;;;;26.95;25.45;;;;;;;;;;5055023;28;20037;-66
2022/06/25 05:53:07;;;;;;;26.92;25.50;;;;;;;;;;5054332;28;20028;-66
2022/06/25 05:55:34;;;;;;;32.15;30.45;;;;;;;;;;5054027;28;20036;-66
2022/06/25 05:57:59;;;;;;;30.52;28.92;;;;;;;;;;5055917;28;20080;-69
2022/06/25 06:00:26;;;;;;;31.88;30.17;;;;;;;;;;5055285;28;20040;-69
2022/06/25 06:02:51;;;;;;;22.92;21.63;;;;;;;;;;5054790;28;20037;-69
2022/06/25 06:05:17;;;;;;;25.05;23.70;;;;;;;;;;5053083;28;20370;-69
2022/06/25 06:07:42;;;;;;;26.13;24.73;;;;;;;;;;5054042;28;20094;-69
2022/06/25 06:10:08;;;;;;;20.90;19.80;;;;;;;;;;5055610;28;20044;-70
2022/06/25 06:12:33;;;;;;;29.02;27.45;;;;;;;;;;5054707;28;20379;-70
2022/06/25 06:14:59;;;;;;;29.48;27.88;;;;;;;;;;5049192;28;20036;-69
2022/06/25 06:17:24;;;;;;;25.67;24.27;;;;;;;;;;5052553;28;20389;-69
2022/06/25 06:19:49;;;;;;;26.27;24.88;;;;;;;;;;5051794;28;20127;-69
2022/06/25 06:22:15;;;;;;;26.20;24.58;;;;;;;;;;5055818;28;20040;-70
2022/06/25 06:24:40;;;;;;;27.23;25.52;;;;;;;;;;5055966;28;20593;-70
2022/06/25 06:27:06;;;;;;;23.38;22.08;;;;;;;;;;5053812;28;20039;-69
2022/06/25 06:29:31;;;;;;;21.42;20.20;;;;;;;;;;5054506;28;20663;-69
2022/06/25 06:31:57;;;;;;;26.23;24.75;;;;;;;;;;5056337;28;20056;-69
2022/06/25 06:34:22;;;;;;;25.48;24.08;;;;;;;;;;5041887;28;20052;-71
2022/06/25 06:36:48;;;;;;;19.13;18.08;;;;;;;;;;5054860;28;20068;-69
2022/06/25 06:39:13;;;;;;;18.02;17.02;;;;;;;;;;5052368;28;20033;-69
2022/06/25 06:41:39;;;;;;;22.80;21.58;;;;;;;;;;5059717;28;20040;-69
2022/06/25 06:44:04;;;;;;;22.83;21.55;;;;;;;;;;5067534;28;20089;-69
2022/06/25 06:46:30;;;;;;;18.42;17.42;;;;;;;;;;5059113;28;20029;-69
2022/06/25 06:48:55;;;;;;;19.08;17.98;;;;;;;;;;5054263;28;20125;-69
2022/06/25 06:51:21;;;;;;;18.92;17.90;;;;;;;;;;5055237;28;20068;-69
2022/06/25 06:53:46;;;;;;;18.10;17.10;;;;;;;;;;5051841;28;20420;-68
2022/06/25 06:56:11;;;;;;;23.95;22.65;;;;;;;;;;5052269;28;20045;-70
2022/06/25 06:58:37;;;;;;;19.80;18.70;;;;;;;;;;5050172;28;20265;-69
2022/06/25 07:01:02;;;;;;;20.10;18.98;;;;;;;;;;5048428;28;20392;-69
2022/06/25 07:03:28;;;;;;;17.95;16.95;;;;;;;;;;5057520;28;20028;-67
2022/06/25 07:05:54;;;;;;;21.95;20.75;;;;;;;;;;5063978;28;20089;-68
2022/06/25 07:08:19;;;;;;;17.90;16.90;;;;;;;;;;5053600;28;20033;-68
2022/06/25 07:10:45;;;;;;;16.73;15.82;;;;;;;;;;5052326;28;20040;-69
2022/06/25 07:13:10;;;;;;;19.40;18.30;;;;;;;;;;5051160;28;20648;-69
2022/06/25 07:15:36;;;;;;;20.10;19.00;;;;;;;;;;5057829;28;20021;-67
2022/06/25 07:18:01;;;;;;;18.40;17.30;;;;;;;;;;5040911;28;20037;-69
2022/06/25 07:20:27;;;;;;;18.00;17.00;;;;;;;;;;5056968;28;20029;-68
2022/06/25 07:22:52;;;;;;;19.88;18.77;;;;;;;;;;5053462;28;20024;-67
2022/06/25 07:25:17;;;;;;;18.02;16.83;;;;;;;;;;5058662;28;20064;-67
2022/06/25 07:27:44;;;;;;;19.13;18.02;;;;;;;;;;5053312;28;20442;-67
2022/06/25 07:30:11;;;;;;;18.15;17.15;;;;;;;;;;5055065;28;20120;-64
2022/06/25 07:32:36;;;;;;;16.27;15.38;;;;;;;;;;5057224;28;20110;-67
2022/06/25 07:35:02;;;;;;;17.23;16.23;;;;;;;;;;5057119;28;20052;-67
2022/06/25 07:37:28;;;;;;;18.95;17.88;;;;;;;;;;5053941;28;20041;-66
2022/06/25 07:39:53;;;;;;;17.10;16.10;;;;;;;;;;5055743;28;20638;-67
2022/06/25 07:42:19;;;;;;;17.20;16.23;;;;;;;;;;5060379;28;20360;-66
2022/06/25 07:44:44;;;;;;;18.05;17.05;;;;;;;;;;5056763;28;20119;-66
2022/06/25 07:47:10;;;;;;;21.58;20.38;;;;;;;;;;5053743;28;20024;-66
2022/06/25 07:51:56;;;;;;;17.35;16.33;;;;;;;;;;5053499;28;20028;-65
2022/06/25 07:52:20;;;;;;;18.40;17.38;;;;;;;;;;5057490;28;20062;-66
2022/06/25 07:54:46;;;;;;;17.73;16.73;;;;;;;;;;5057962;28;20025;-66
2022/06/25 07:57:11;;;;;;;22.60;21.40;;;;;;;;;;5054210;28;20029;-65
2022/06/25 07:59:36;;;;;;;16.90;15.90;;;;;;;;;;5052071;28;20511;-65
2022/06/25 08:02:02;;;;;;;17.45;16.30;;;;;;;;;;5054036;28;20094;-64
2022/06/25 08:04:27;;;;;;;16.10;15.20;;;;;;;;;;5052535;28;20089;-64
2022/06/25 08:06:55;;;;;;;20.27;18.92;;;;;;;;;;5052598;28;20025;-64
2022/06/25 08:09:20;;;;;;;15.90;15.00;;;;;;;;;;5053821;28;20037;-64
2022/06/25 08:11:45;;;;;;;15.73;14.82;;;;;;;;;;5051094;28;20099;-64
2022/06/25 08:14:11;;;;;;;17.65;16.65;;;;;;;;;;5053993;28;20497;-64
2022/06/25 08:16:38;;;;;;;13.38;12.57;;;;;;;;;;5054168;28;20024;-64
2022/06/25 08:19:03;;;;;;;17.80;16.80;;;;;;;;;;5053790;28;20035;-64
2022/06/25 08:21:29;;;;;;;27.40;25.98;;;;;;;;;;5054364;28;20115;-64
2022/06/25 08:23:54;;;;;;;25.95;24.55;;;;;;;;;;5054667;28;20132;-64
2022/06/25 08:26:20;;;;;;;34.10;32.30;;;;;;;;;;5055328;28;20044;-64
2022/06/25 08:28:45;;;;;;;41.55;39.45;;;;;;;;;;5054360;28;20117;-63
2022/06/25 08:31:11;;;;;;;48.03;45.63;;;;;;;;;;5056165;28;20032;-63
2022/06/25 08:33:36;;;;;;;47.25;44.85;;;;;;;;;;5055114;28;20086;-63
2022/06/25 08:36:02;;;;;;;38.42;36.42;;;;;;;;;;5055392;28;20377;-63
2022/06/25 08:38:28;;;;;;;28.60;27.08;;;;;;;;;;5056032;28;20112;-63
2022/06/25 08:40:57;;;;;;;31.50;29.80;;;;;;;;;;5054253;28;20241;-63
2022/06/25 08:43:24;;;;;;;26.65;25.23;;;;;;;;;;5056945;28;20036;-63
2022/06/25 08:45:49;;;;;;;44.50;42.25;;;;;;;;;;5055472;28;20047;-63
2022/06/25 08:48:23;;;;;;;42.95;40.65;;;;;;;;;;5053514;28;20032;-63
2022/06/25 08:50:49;;;;;;;44.88;42.58;;;;;;;;;;5053108;28;20497;-64
2022/06/25 08:53:15;;;;;;;48.28;45.83;;;;;;;;;;5056534;28;20032;-64
2022/06/25 08:55:42;;;;;;;39.00;36.97;;;;;;;;;;5054432;28;20036;-63
2022/06/25 08:58:09;;;;;;;40.60;38.50;;;;;;;;;;5053001;28;20056;-64
2022/06/25 09:00:37;;;;;;;50.47;47.90;;;;;;;;;;5054062;28;20761;-63
2022/06/25 09:03:03;;;;;;;51.38;48.78;;;;;;;;;;5060308;28;20067;-63
2022/06/25 09:05:37;;;;;;;48.72;46.25;;;;;;;;;;5059145;28;20037;-63
2022/06/25 09:08:05;;;;;;;52.38;49.72;;;;;;;;;;5055826;28;20033;-63
2022/06/25 09:10:31;;;;;;;39.35;37.38;;;;;;;;;;5061473;28;20028;-63
2022/06/25 09:12:59;;;;;;;32.03;30.33;;;;;;;;;;5056422;28;20036;-63
2022/06/25 09:15:28;;;;;;;47.50;45.10;;;;;;;;;;5059673;28;20037;-65
2022/06/25 09:17:54;;;;;;;56.85;53.97;;;;;;;;;;5056575;28;20395;-63
2022/06/25 09:20:20;;;;;;;45.72;43.40;;;;;;;;;;5057258;28;20032;-64
2022/06/25 09:22:58;;;;;;;37.42;35.47;;;;;;;;;;5055569;28;20039;-63
2022/06/25 09:25:26;;;;;;;46.53;44.13;;;;;;;;;;5064939;28;20411;-63
2022/06/25 09:27:52;;;;;;;35.47;33.65;;;;;;;;;;5058016;28;20064;-64
2022/06/25 09:30:20;;;;;;;41.03;38.92;;;;;;;;;;5057866;28;20134;-64
2022/06/25 09:32:59;;;;;;;49.33;46.83;;;;;;;;;;5059871;28;20032;-63
2022/06/25 09:35:33;;;;;;;42.67;40.47;;;;;;;;;;5066764;28;20094;-64
2022/06/25 09:38:14;;;;;;;26.27;24.88;;;;;;;;;;5058002;28;20498;-63
2022/06/25 09:40:46;;;;;;;39.22;37.20;;;;;;;;;;5057985;28;20178;-64
2022/06/25 09:43:20;;;;;;;37.42;35.47;;;;;;;;;;5055606;28;20036;-63
2022/06/25 09:45:48;;;;;;;46.92;44.53;;;;;;;;;;5056319;28;20036;-65
2022/06/25 09:48:20;;;;;;;47.28;44.88;;;;;;;;;;5058441;28;20163;-66
2022/06/25 09:51:09;;;;;;;39.55;37.55;;;;;;;;;;5058935;28;20087;-65
2022/06/25 09:53:48;;;;;;;36.28;34.40;;;;;;;;;;5052975;28;20041;-65
2022/06/25 09:56:20;;;;;;;42.70;40.50;;;;;;;;;;5056748;28;20040;-65
2022/06/25 09:58:47;;;;;;;52.45;49.22;;;;;;;;;;5053858;28;20058;-65
2022/06/25 10:01:16;;;;;;;63.85;60.65;;;;;;;;;;5057963;28;20114;-66
2022/06/25 10:03:43;;;;;;;77.18;73.38;;;;;;;;;;5055021;28;20037;-66
2022/06/25 10:06:09;;;;;;;61.13;58.08;;;;;;;;;;5054595;28;20041;-66
2022/06/25 10:08:35;;;;;;;53.90;51.15;;;;;;;;;;5053476;28;20029;-66
2022/06/25 10:11:04;;;;;;;68.25;64.85;;;;;;;;;;5053923;28;20033;-65
2022/06/25 10:13:30;;;;;;;49.40;46.90;;;;;;;;;;5053879;28;20048;-65
2022/06/25 10:15:56;;;;;;;44.30;42.05;;;;;;;;;;5052449;28;20089;-65
2022/06/25 10:18:22;;;;;;;56.40;53.58;;;;;;;;;;5053056;28;20040;-65
2022/06/25 10:20:48;;;;;;;80.00;76.03;;;;;;;;;;5052167;28;20238;-65
2022/06/25 10:23:14;;;;;;;63.88;60.17;;;;;;;;;;5053364;28;20029;-65
2022/06/25 10:25:41;;;;;;;78.07;74.18;;;;;;;;;;5051050;28;20047;-65
2022/06/25 10:28:12;;;;;;;72.95;69.32;;;;;;;;;;5060799;28;20039;-64
2022/06/25 10:30:45;;;;;;;84.05;79.85;;;;;;;;;;5057616;28;20135;-65
2022/06/25 10:33:12;;;;;;;66.15;62.88;;;;;;;;;;5054620;28;20569;-65
2022/06/25 10:35:40;;;;;;;87.25;82.90;;;;;;;;;;5053106;28;20052;-65
2022/06/25 10:38:10;;;;;;;121.55;115.38;;;;;;;;;;5051929;28;20043;-65
2022/06/25 10:40:53;;;;;;;145.90;138.70;;;;;;;;;;5050518;28;20753;-63
2022/06/25 10:43:49;;;;;;;214.10;203.40;;;;;;;;;;5052681;28;20102;-64
2022/06/25 10:46:30;;;;;;;117.78;111.97;;;;;;;;;;5060317;28;20103;-64
2022/06/25 10:49:22;;;;;;;124.63;118.47;;;;;;;;;;5053245;28;20615;-64
2022/06/25 10:51:49;;;;;;;197.85;187.88;;;;;;;;;;5054694;28;20422;-64
2022/06/25 10:54:24;;;;;;;265.83;252.70;;;;;;;;;;5055778;28;20087;-64
2022/06/25 10:56:58;;;;;;;253.55;240.73;;;;;;;;;;5053026;28;20127;-64
2022/06/25 10:59:34;;;;;;;187.55;178.32;;;;;;;;;;5053084;28;20116;-64
2022/06/25 11:02:03;;;;;;;279.02;265.13;;;;;;;;;;5052327;28;20398;-64
2022/06/25 11:04:30;;;;;;;270.05;256.67;;;;;;;;;;5052639;28;20857;-64
2022/06/25 11:07:10;;;;;;;253.68;240.98;;;;;;;;;;5057680;28;20033;-64
2022/06/25 11:09:37;;;;;;;303.33;288.23;;;;;;;;;;5054981;28;20024;-64
2022/06/25 11:12:04;;;;;;;293.60;279.00;;;;;;;;;;5054344;28;20136;-64
2022/06/25 11:14:29;;;;;;;318.98;303.02;;;;;;;;;;5057951;28;20029;-65
2022/06/25 11:16:55;;;;;;;288.42;274.15;;;;;;;;;;5055702;28;20035;-64
2022/06/25 11:19:22;;;;;;;309.25;293.67;;;;;;;;;;5052737;28;20028;-65
2022/06/25 11:21:49;;;;;;;338.23;321.13;;;;;;;;;;5055729;28;20048;-65
2022/06/25 11:24:17;;;;;;;329.05;312.65;;;;;;;;;;5055803;28;20132;-65
2022/06/25 11:29:38;;;;;;;264.75;251.70;;;;;;;;;;5053546;28;20454;-65
2022/06/25 11:32:05;;;;;;;291.77;277.35;;;;;;;;;;5054488;28;20024;-66
2022/06/25 11:34:30;;;;;;;206.40;196.20;;;;;;;;;;5055987;28;20099;-65
2022/06/25 11:37:02;;;;;;;188.80;179.40;;;;;;;;;;5053712;28;20029;-65
2022/06/25 11:39:28;;;;;;;251.00;238.48;;;;;;;;;;5053038;28;20044;-66
2022/06/25 11:41:54;;;;;;;208.60;198.38;;;;;;;;;;5056187;28;20029;-65
2022/06/25 11:44:20;;;;;;;220.52;209.70;;;;;;;;;;5054968;28;20055;-68
2022/06/25 11:46:47;;;;;;;169.23;160.80;;;;;;;;;;5058562;28;20036;-67
2022/06/25 11:49:13;;;;;;;173.20;164.65;;;;;;;;;;5065533;28;20037;-66
2022/06/25 11:51:48;;;;;;;186.32;177.18;;;;;;;;;;5051854;28;20067;-66
2022/06/25 11:54:15;;;;;;;179.00;170.13;;;;;;;;;;5054667;28;20041;-67
2022/06/25 11:56:48;;;;;;;183.77;174.65;;;;;;;;;;5051919;28;20032;-64
2022/06/25 11:59:15;;;;;;;183.10;174.13;;;;;;;;;;5050096;28;20036;-65
2022/06/25 12:01:40;;;;;;;184.95;175.82;;;;;;;;;;5051907;28;20849;-65
2022/06/25 12:04:06;;;;;;;177.30;168.50;;;;;;;;;;5050530;28;20042;-65
2022/06/25 12:06:31;;;;;;;183.57;174.50;;;;;;;;;;5052215;28;20107;-65
2022/06/25 12:08:57;;;;;;;208.95;198.73;;;;;;;;;;5052503;28;20039;-65
2022/06/25 12:11:22;;;;;;;209.68;199.40;;;;;;;;;;5050746;28;20032;-65
2022/06/25 12:13:48;;;;;;;190.40;181.00;;;;;;;;;;5052196;28;20872;-65
2022/06/25 12:16:13;;;;;;;238.93;227.27;;;;;;;;;;5050050;28;20029;-65
2022/06/25 12:18:41;;;;;;;228.30;217.18;;;;;;;;;;5052863;28;20037;-64
2022/06/25 12:21:08;;;;;;;220.77;209.98;;;;;;;;;;5053622;28;20036;-66
2022/06/25 12:23:51;;;;;;;198.10;188.35;;;;;;;;;;5055627;28;20029;-65
2022/06/25 12:26:30;;;;;;;220.02;209.32;;;;;;;;;;5053313;28;20032;-65
2022/06/25 12:29:06;;;;;;;213.50;203.05;;;;;;;;;;5051161;28;20059;-65
2022/06/25 12:31:31;;;;;;;213.75;203.23;;;;;;;;;;5050889;28;20339;-65
2022/06/25 12:33:57;;;;;;;228.95;217.50;;;;;;;;;;5051360;28;20102;-64
2022/06/25 12:36:25;;;;;;;215.05;204.52;;;;;;;;;;5047904;28;20103;-66
2022/06/25 12:38:50;;;;;;;208.95;198.73;;;;;;;;;;5051902;28;20447;-65
2022/06/25 12:41:16;;;;;;;237.20;225.60;;;;;;;;;;5051366;28;20150;-65
2022/06/25 12:43:45;;;;;;;226.63;215.57;;;;;;;;;;5051066;28;20041;-64
2022/06/25 12:46:12;;;;;;;173.38;164.77;;;;;;;;;;5055611;28;20086;-64
2022/06/25 12:48:37;;;;;;;247.65;235.63;;;;;;;;;;5054201;28;20036;-64
2022/06/25 12:51:21;;;;;;;212.10;201.73;;;;;;;;;;5053756;28;20037;-64
2022/06/25 12:53:46;;;;;;;252.48;240.10;;;;;;;;;;5052325;28;20154;-64
2022/06/25 12:56:12;;;;;;;157.65;149.85;;;;;;;;;;5052096;28;20501;-63
2022/06/25 12:58:39;;;;;;;154.13;146.50;;;;;;;;;;5054892;28;20044;-63
2022/06/25 13:01:22;;;;;;;225.98;214.95;;;;;;;;;;5054384;28;20120;-64
2022/06/25 13:03:47;;;;;;;257.35;244.77;;;;;;;;;;5053118;28;20041;-64
2022/06/25 13:06:13;;;;;;;220.52;209.73;;;;;;;;;;5055795;28;20025;-64
2022/06/25 13:08:40;;;;;;;216.85;206.23;;;;;;;;;;5053753;28;20047;-63
2022/06/25 13:11:06;;;;;;;225.52;214.45;;;;;;;;;;5054213;28;20040;-64
2022/06/25 13:13:32;;;;;;;132.50;125.97;;;;;;;;;;5055150;28;20430;-63
2022/06/25 13:16:00;;;;;;;177.77;169.05;;;;;;;;;;5055763;28;20507;-64
2022/06/25 13:18:26;;;;;;;142.02;134.93;;;;;;;;;;5061471;28;20124;-63
2022/06/25 13:20:51;;;;;;;204.20;194.23;;;;;;;;;;5053728;28;20425;-64
2022/06/25 13:23:16;;;;;;;162.48;154.48;;;;;;;;;;5055092;28;20478;-63
2022/06/25 13:25:42;;;;;;;145.77;138.57;;;;;;;;;;5054895;28;20097;-63
2022/06/25 13:28:07;;;;;;;185.43;176.38;;;;;;;;;;5055450;28;20519;-63
2022/06/25 13:30:33;;;;;;;191.60;182.23;;;;;;;;;;5055868;28;20029;-64
2022/06/25 13:32:58;;;;;;;210.48;200.25;;;;;;;;;;5055706;28;20044;-63
2022/06/25 13:35:23;;;;;;;228.32;217.27;;;;;;;;;;5053769;28;20166;-63
2022/06/25 13:37:49;;;;;;;218.93;208.30;;;;;;;;;;5055527;28;20044;-64
2022/06/25 13:40:14;;;;;;;229.60;218.38;;;;;;;;;;5055570;28;20037;-64
2022/06/25 13:42:40;;;;;;;234.38;222.73;;;;;;;;;;5052739;28;20028;-63
2022/06/25 13:45:05;;;;;;;241.90;230.10;;;;;;;;;;5053425;28;20025;-63
2022/06/25 13:47:31;;;;;;;241.75;229.95;;;;;;;;;;5057277;28;20569;-63
2022/06/25 13:49:56;;;;;;;238.95;227.35;;;;;;;;;;5060181;28;20036;-62
2022/06/25 13:52:21;;;;;;;266.73;253.68;;;;;;;;;;5057960;28;20377;-63
2022/06/25 13:54:47;;;;;;;228.43;217.32;;;;;;;;;;5058631;28;20020;-63
2022/06/25 13:57:13;;;;;;;256.00;243.43;;;;;;;;;;5056212;28;20034;-62
2022/06/25 13:59:38;;;;;;;245.27;233.27;;;;;;;;;;5058655;28;20032;-62
2022/06/25 14:02:05;;;;;;;264.30;251.40;;;;;;;;;;5058191;28;20393;-62
2022/06/25 14:04:31;;;;;;;268.10;254.95;;;;;;;;;;5059537;28;20033;-62
2022/06/25 14:06:56;;;;;;;267.58;254.45;;;;;;;;;;5058919;28;20055;-62
2022/06/25 14:09:22;;;;;;;265.17;252.23;;;;;;;;;;5053839;28;20356;-62
2022/06/25 14:11:47;;;;;;;269.45;256.23;;;;;;;;;;5058814;28;20287;-62
2022/06/25 14:14:13;;;;;;;274.67;261.08;;;;;;;;;;5056896;28;20036;-63
2022/06/25 14:16:40;;;;;;;239.15;227.48;;;;;;;;;;5055018;28;20040;-63
2022/06/25 14:19:06;;;;;;;242.27;230.40;;;;;;;;;;5061575;28;20025;-62
2022/06/25 14:21:31;;;;;;;213.77;202.95;;;;;;;;;;5058243;28;20043;-62
2022/06/25 14:23:57;;;;;;;202.55;192.65;;;;;;;;;;5058739;28;20041;-62